createdAt,value
2019-06-07T14:31:13.159Z,34.40
2019-06-07T14:34:07.954Z,35.80
2019-06-07T14:40:31.900Z,35.80
2019-06-07T14:43:27.571Z,35.70
2019-06-07T14:46:24.026Z,35.70
2019-06-07T14:49:18.506Z,35.70
2019-06-07T14:52:15.323Z,35.60
2019-06-07T14:55:11.653Z,35.60
2019-06-07T14:58:08.315Z,35.60
2019-06-07T15:01:02.490Z,35.60
2019-06-07T15:03:58.551Z,35.60
2019-06-07T15:06:53.476Z,35.60
2019-06-07T15:09:48.770Z,35.60
2019-06-07T15:12:43.444Z,35.50
2019-06-07T15:15:38.976Z,35.60
2019-06-07T15:18:33.954Z,35.40
2019-06-07T15:21:32.943Z,35.40
2019-06-07T15:24:26.089Z,35.40
2019-06-07T15:27:20.621Z,35.30
2019-06-07T15:30:15.793Z,35.30
2019-06-07T15:33:10.573Z,35.30
2019-06-07T15:36:06.715Z,35.30
2019-06-07T15:39:01.851Z,35.20
2019-06-07T15:41:58.611Z,35.20
2019-06-07T15:44:55.883Z,35.20
2019-06-07T15:47:50.442Z,35.20
2019-06-07T15:50:50.222Z,35.20
2019-06-07T15:53:44.979Z,35.20
2019-06-07T15:56:41.782Z,35.20
2019-06-07T15:59:37.417Z,35.20
2019-06-07T16:02:33.466Z,35.20
2019-06-07T16:05:28.976Z,35.20
2019-06-07T16:08:23.513Z,35.20
2019-06-07T16:11:18.555Z,35.20
2019-06-07T16:14:14.854Z,35.20
2019-06-07T16:17:10.528Z,35.20
2019-06-07T16:20:05.180Z,35.20
2019-06-07T16:23:00.425Z,35.20
2019-06-07T16:25:54.997Z,35.20
2019-06-07T16:28:51.168Z,35.20
2019-06-07T16:31:46.119Z,35.20
2019-06-07T16:34:41.847Z,35.20
2019-06-07T16:37:38.163Z,35.20
2019-06-07T16:40:34.250Z,35.20
2019-06-07T16:43:28.952Z,35.10
2019-06-07T16:46:24.990Z,35.00
2019-06-07T16:49:19.500Z,35.00
2019-06-07T16:52:13.460Z,34.90
2019-06-07T16:55:08.336Z,34.90
2019-06-07T16:58:02.834Z,34.80
2019-06-07T17:00:59.075Z,34.80
2019-06-07T17:03:53.709Z,34.70
2019-06-07T17:06:48.290Z,34.60
2019-06-07T17:09:45.286Z,34.60
2019-06-07T17:12:38.676Z,34.50
2019-06-07T17:15:32.906Z,34.50
2019-06-07T17:18:27.599Z,34.40
2019-06-07T17:21:21.806Z,34.40
2019-06-07T17:24:16.337Z,34.30
2019-06-07T17:27:11.146Z,34.30
2019-06-07T17:30:06.102Z,34.30
2019-06-07T17:33:00.333Z,34.30
2019-06-07T17:35:54.870Z,34.20
2019-06-07T17:38:48.948Z,34.20
2019-06-07T17:41:54.817Z,34.20
2019-06-07T17:44:38.880Z,34.20
2019-06-07T17:47:33.253Z,34.10
2019-06-07T17:50:29.407Z,34.20
2019-06-07T17:53:24.349Z,34.10
2019-06-07T17:56:19.503Z,34.10
2019-06-07T17:59:13.839Z,34.10
2019-06-07T18:02:14.691Z,34.10
2019-06-07T18:05:03.747Z,34.10
2019-06-07T18:07:59.474Z,34.10
2019-06-07T18:10:54.142Z,34.10
2019-06-07T18:14:05.095Z,34.10
2019-06-07T18:16:44.564Z,34.10
2019-06-07T18:19:38.714Z,34.10
2019-06-07T18:22:32.790Z,34.10
2019-06-07T18:25:28.168Z,34.10
2019-06-07T18:28:22.567Z,34.10
2019-06-07T18:31:17.171Z,34.10
2019-06-07T18:34:11.224Z,34.10
2019-06-07T18:37:05.350Z,34.10
2019-06-07T18:40:00.943Z,34.10
2019-06-07T18:42:55.647Z,34.10
2019-06-07T18:45:51.061Z,34.10
2019-06-07T18:48:46.419Z,34.10
2019-06-07T18:51:41.984Z,34.10
2019-06-07T18:54:36.167Z,34.00
2019-06-07T18:57:30.569Z,34.10
2019-06-07T19:00:27.052Z,34.00
2019-06-07T19:03:21.432Z,34.00
2019-06-07T19:06:15.654Z,33.90
2019-06-07T19:09:10.650Z,33.90
2019-06-07T19:12:05.138Z,33.90
2019-06-07T19:14:59.724Z,33.90
2019-06-07T19:17:54.167Z,33.90
2019-06-07T19:20:50.507Z,33.90
2019-06-07T19:23:45.414Z,33.90
2019-06-07T19:26:39.593Z,33.90
2019-06-07T19:29:34.836Z,33.80
2019-06-07T19:32:30.316Z,33.80
2019-06-07T19:35:24.926Z,33.80
2019-06-07T19:38:19.242Z,33.70
2019-06-07T19:41:19.570Z,33.70
2019-06-07T19:44:09.164Z,33.70
2019-06-07T19:47:03.370Z,33.70
2019-06-07T19:49:58.868Z,33.70
2019-06-07T19:52:54.918Z,33.70
2019-06-07T19:55:49.518Z,33.70
2019-06-07T19:58:46.167Z,33.70
2019-06-07T20:01:40.517Z,33.70
2019-06-07T20:04:34.827Z,33.60
2019-06-07T20:07:30.190Z,33.60
2019-06-07T20:10:24.598Z,33.60
2019-06-07T20:13:19.232Z,33.50
2019-06-07T20:16:15.285Z,33.50
2019-06-07T20:19:09.744Z,33.40
2019-06-07T20:22:05.495Z,33.40
2019-06-07T20:25:01.482Z,33.30
2019-06-07T20:27:57.495Z,33.20
2019-06-07T20:30:52.333Z,33.10
2019-06-07T20:33:47.673Z,33.10
2019-06-07T20:36:45.874Z,33.10
2019-06-07T20:39:41.017Z,33.00
2019-06-07T20:42:35.593Z,33.00
2019-06-07T20:45:33.689Z,33.00
2019-06-07T20:48:26.120Z,33.00
2019-06-07T20:51:20.323Z,33.10
2019-06-07T20:54:16.060Z,33.10
2019-06-07T20:57:11.422Z,33.10
2019-06-07T21:00:14.167Z,33.10
2019-06-07T21:03:05.306Z,33.10
2019-06-07T21:06:01.553Z,33.10
2019-06-07T21:08:57.465Z,33.10
2019-06-07T21:11:51.627Z,33.20
2019-06-07T21:14:45.895Z,33.20
2019-06-07T21:17:40.584Z,33.20
2019-06-07T21:20:37.386Z,33.20
2019-06-07T21:23:31.920Z,33.20
2019-06-07T21:26:26.016Z,33.20
2019-06-07T21:29:21.934Z,33.20
2019-06-07T21:32:17.479Z,33.20
2019-06-07T21:35:12.693Z,33.20
2019-06-07T21:38:07.861Z,33.20
2019-06-07T21:41:02.249Z,33.20
2019-06-07T21:43:56.627Z,33.20
2019-06-07T21:46:50.920Z,33.20
2019-06-07T21:49:45.339Z,33.20
2019-06-07T21:52:39.770Z,33.10
2019-06-07T21:55:34.024Z,33.10
2019-06-07T21:58:28.369Z,33.10
2019-06-07T22:01:29.746Z,33.10
2019-06-07T22:04:24.199Z,33.10
2019-06-07T22:07:18.510Z,33.10
2019-06-07T22:10:12.636Z,33.10
2019-06-07T22:13:08.001Z,33.10
2019-06-07T22:16:04.069Z,33.10
2019-06-07T22:18:58.362Z,33.10
2019-06-07T22:22:02.297Z,33.10
2019-06-07T22:24:49.508Z,33.10
2019-06-07T22:27:44.010Z,33.00
2019-06-07T22:30:38.065Z,33.00
2019-06-07T22:33:32.345Z,33.00
2019-06-07T22:36:26.605Z,33.00
2019-06-07T22:39:20.846Z,33.00
2019-06-07T22:42:15.266Z,33.00
2019-06-07T22:45:10.869Z,33.00
2019-06-07T22:48:06.795Z,33.00
2019-06-07T22:51:02.208Z,33.00
2019-06-07T22:53:56.203Z,32.90
2019-06-07T22:57:03.865Z,32.90
2019-06-07T22:59:58.292Z,32.90
2019-06-07T23:02:52.589Z,32.90
2019-06-07T23:05:47.002Z,32.90
2019-06-07T23:08:41.096Z,32.90
2019-06-07T23:11:35.232Z,32.80
2019-06-07T23:14:29.336Z,32.80
2019-06-07T23:17:23.771Z,32.80
2019-06-07T23:20:18.123Z,32.80
2019-06-07T23:23:12.492Z,32.80
2019-06-07T23:26:06.855Z,32.80
2019-06-07T23:29:00.985Z,32.80
2019-06-07T23:31:55.015Z,32.80
2019-06-07T23:34:50.194Z,32.80
2019-06-07T23:37:46.089Z,32.80
2019-06-07T23:40:40.283Z,32.70
2019-06-07T23:43:34.643Z,32.70
2019-06-07T23:46:28.779Z,32.70
2019-06-07T23:49:22.824Z,32.70
2019-06-07T23:52:17.841Z,32.70
2019-06-07T23:55:13.768Z,32.70
2019-06-07T23:58:08.404Z,32.70
